CheckWX is a tool to help pilots better visualize weather data.  It is not intended as a substitute for an official pre-flight weather briefing.

06:50:46 UTC

KCFD METAR
Coulter Field Airport
Bryan, Texas, USA
Current

16 mins ago

KCFD 030635Z AUTO 11007KT 10SM BKN019 BKN026 OVC050 19/19 A2994 RMK AO2 T01910191
Observed
Apr-3 @ 06:35 UTC
Wind
  • 110° at 7 KTS
Visibility
Flight Rules
MVFR
Cloud Levels
  • Broken at 1,900' AGL
  • Broken at 2,600' AGL
  • Overcast at 5,000' AGL
Temperature
19°C / 66°F
Dewpoint
19°C / 66°F
Humidity
100%
Altimeter
29.94" Hg
Pressure
1013.92 hPa
Previous

36 mins ago

KCFD 030615Z AUTO 10006KT 10SM SCT026 OVC050 19/19 A2994 RMK AO2 T01900190
Observed
Apr-3 @ 06:15 UTC
Wind
  • 100° at 6 KTS
Visibility
Flight Rules
VFR
Cloud Levels
  • Scattered at 2,600' AGL
  • Overcast at 5,000' AGL
Temperature
19°C / 66°F
Dewpoint
19°C / 66°F
Humidity
100%
Altimeter
29.94" Hg
Pressure
1013.92 hPa
Previous

56 mins ago

KCFD 030555Z AUTO 11007KT 10SM SCT019 SCT024 OVC050 19/19 A2994 RMK AO2 60004 T01900190 10210 20190 402460140
Observed
Apr-3 @ 05:55 UTC
Wind
  • 110° at 7 KTS
Visibility
Flight Rules
VFR
Cloud Levels
  • Scattered at 1,900' AGL
  • Scattered at 2,400' AGL
  • Overcast at 5,000' AGL
Dewpoint
19°C / 66°F
Humidity
100%
Altimeter
29.94" Hg
Pressure
1013.92 hPa